createdAt,value
2018-09-05T00:01:09.908Z,6.30
2018-09-05T00:06:13.217Z,6.40
2018-09-05T00:11:16.627Z,6.20
2018-09-05T00:16:20.741Z,5.40
2018-09-05T00:21:24.094Z,6.00
2018-09-05T00:26:27.550Z,5.17
2018-09-05T00:31:30.566Z,6.60
2018-09-05T00:36:33.592Z,6.50
2018-09-05T00:41:36.654Z,6.00
2018-09-05T00:46:39.733Z,5.63
2018-09-05T00:51:42.995Z,6.30
2018-09-05T00:56:46.247Z,5.50
2018-09-05T01:01:50.196Z,5.50
2018-09-05T01:06:53.763Z,6.93
2018-09-05T01:11:57.180Z,5.70
2018-09-05T01:17:00.389Z,5.63
2018-09-05T01:22:03.550Z,5.73
2018-09-05T01:27:07.487Z,5.40
2018-09-05T01:32:11.236Z,5.13
2018-09-05T01:37:14.506Z,5.07
2018-09-05T01:42:17.852Z,6.73
2018-09-05T01:47:21.756Z,5.60
2018-09-05T01:52:25.304Z,5.50
2018-09-05T01:57:28.458Z,5.87
2018-09-05T02:02:31.530Z,5.50
2018-09-05T02:07:34.567Z,6.53
2018-09-05T02:12:37.606Z,5.77
2018-09-05T02:17:40.612Z,5.30
2018-09-05T02:22:43.647Z,5.20
2018-09-05T02:27:46.754Z,5.93
2018-09-05T02:32:50.664Z,5.40
2018-09-05T02:37:54.061Z,4.63
2018-09-05T02:42:57.250Z,5.10
2018-09-05T02:48:00.278Z,5.60
2018-09-05T02:53:03.330Z,5.13
2018-09-05T02:58:06.504Z,5.17
2018-09-05T03:03:09.510Z,5.13
2018-09-05T03:08:13.390Z,5.20
2018-09-05T03:13:16.474Z,5.70
2018-09-05T03:18:21.277Z,6.20
2018-09-05T03:23:24.626Z,5.83
2018-09-05T03:28:27.875Z,6.43
2018-09-05T03:33:31.218Z,5.93
2018-09-05T03:38:36.210Z,5.10
2018-09-05T03:43:39.222Z,5.87
2018-09-05T03:48:42.279Z,5.20
2018-09-05T03:53:45.642Z,5.70
2018-09-05T03:58:49.453Z,5.80
2018-09-05T04:03:53.181Z,6.20
2018-09-05T04:08:57.049Z,5.03
2018-09-05T04:14:00.598Z,5.90
2018-09-05T04:19:03.910Z,5.50
2018-09-05T04:24:06.940Z,5.27
2018-09-05T04:29:09.939Z,5.27
2018-09-05T04:34:13.178Z,6.60
2018-09-05T04:39:16.253Z,5.87
2018-09-05T04:44:25.512Z,5.40
2018-09-05T04:49:29.663Z,6.57
2018-09-05T04:54:32.737Z,6.80
2018-09-05T04:59:35.883Z,5.80
2018-09-05T05:04:38.953Z,6.50
2018-09-05T05:09:42.155Z,6.47
2018-09-05T05:14:48.308Z,7.63
2018-09-05T05:19:51.461Z,7.00
2018-09-05T05:24:54.520Z,5.77
2018-09-05T05:29:57.634Z,6.50
2018-09-05T05:35:00.683Z,6.17
2018-09-05T05:40:06.843Z,6.40
2018-09-05T05:45:10.945Z,6.70
2018-09-05T05:50:14.861Z,7.00
2018-09-05T05:55:17.943Z,6.50
2018-09-05T06:00:23.233Z,6.50
2018-09-05T06:05:26.297Z,6.60
2018-09-05T06:10:29.307Z,7.40
2018-09-05T06:15:32.367Z,6.70
2018-09-05T06:20:37.613Z,7.10
2018-09-05T06:25:42.400Z,7.03
2018-09-05T06:30:45.864Z,8.90
2018-09-05T06:35:48.824Z,6.43
2018-09-05T06:40:51.866Z,5.87
2018-09-05T06:45:55.354Z,6.30
2018-09-05T06:51:02.454Z,7.00
2018-09-05T06:56:08.167Z,6.60
2018-09-05T07:01:12.361Z,7.43
2018-09-05T07:06:15.992Z,7.87
2018-09-05T07:11:19.103Z,7.80
2018-09-05T07:16:23.031Z,7.90
2018-09-05T07:21:26.212Z,8.47
2018-09-05T07:26:29.225Z,8.33
2018-09-05T07:31:32.230Z,8.33
2018-09-05T07:36:35.255Z,7.70
2018-09-05T07:41:39.313Z,8.00
2018-09-05T07:46:42.454Z,8.50
2018-09-05T07:51:48.985Z,8.70
2018-09-05T07:56:55.200Z,8.50
2018-09-05T08:01:58.960Z,9.10
2018-09-05T08:07:02.174Z,9.13
2018-09-05T08:12:05.886Z,10.80
2018-09-05T08:17:09.305Z,9.50
2018-09-05T08:22:12.336Z,9.67
2018-09-05T08:27:19.915Z,10.40
2018-09-05T08:32:24.551Z,10.50
2018-09-05T08:37:29.037Z,9.37
2018-09-05T08:42:34.761Z,9.33
2018-09-05T08:47:39.806Z,9.03
2018-09-05T08:52:42.785Z,7.87
2018-09-05T08:57:45.872Z,8.70
2018-09-05T09:02:49.045Z,8.03
2018-09-05T09:07:52.222Z,8.50
2018-09-05T09:12:55.441Z,9.20
2018-09-05T09:18:01.212Z,8.20
2018-09-05T09:23:05.102Z,9.53
2018-09-05T09:28:09.717Z,8.77
2018-09-05T09:33:12.746Z,7.80
2018-09-05T09:38:15.883Z,8.20
2018-09-05T09:43:18.961Z,8.00
2018-09-05T09:48:22.207Z,7.57
2018-09-05T09:53:25.618Z,7.40
2018-09-05T09:58:31.275Z,7.70
2018-09-05T10:03:41.077Z,8.37
2018-09-05T10:09:50.208Z,7.10
2018-09-05T10:17:01.347Z,6.67
2018-09-05T10:22:05.467Z,6.00
2018-09-05T10:27:09.221Z,5.10
2018-09-05T10:32:12.994Z,5.23
2018-09-05T10:37:17.390Z,4.77
2018-09-05T10:42:21.451Z,5.10
2018-09-05T10:47:25.823Z,5.30
2018-09-05T10:52:30.160Z,4.60
2018-09-05T10:57:35.545Z,4.03
2018-09-05T11:02:39.231Z,4.47
2018-09-05T11:07:42.869Z,4.07
2018-09-05T11:12:47.458Z,4.90
2018-09-05T11:17:51.666Z,4.67
2018-09-05T11:22:57.407Z,4.40
2018-09-05T11:28:04.675Z,3.90
2018-09-05T11:33:09.006Z,4.93
2018-09-05T11:38:13.218Z,4.13
2018-09-05T11:43:17.706Z,3.43
2018-09-05T11:48:21.392Z,4.03
2018-09-05T11:53:25.448Z,4.37
2018-09-05T11:58:28.837Z,4.07
2018-09-05T12:03:32.362Z,5.13
2018-09-05T12:08:39.704Z,4.30
2018-09-05T12:13:44.275Z,5.10
2018-09-05T12:18:48.463Z,4.50
2018-09-05T12:23:51.533Z,6.37
2018-09-05T12:28:54.599Z,5.07
2018-09-05T12:33:57.705Z,5.97
2018-09-05T12:39:00.872Z,5.30
2018-09-05T12:44:07.015Z,4.93
2018-09-05T12:49:14.694Z,4.70
2018-09-05T12:54:18.411Z,5.07
2018-09-05T12:59:21.540Z,5.00
2018-09-05T13:04:24.696Z,5.17
2018-09-05T13:09:27.750Z,5.00
2018-09-05T13:14:30.762Z,3.97
2018-09-05T13:19:35.337Z,5.07
2018-09-05T13:24:41.004Z,5.77
2018-09-05T13:29:45.067Z,5.07
2018-09-05T13:34:48.660Z,4.70
2018-09-05T13:39:51.763Z,4.63
2018-09-05T13:44:54.834Z,4.53
2018-09-05T13:49:58.020Z,4.40
2018-09-05T13:55:01.051Z,4.20
2018-09-05T14:00:04.921Z,5.20
2018-09-05T14:05:11.030Z,4.60
2018-09-05T14:10:16.547Z,4.70
2018-09-05T14:15:20.623Z,4.43
2018-09-05T14:20:23.753Z,4.90
2018-09-05T14:25:26.834Z,4.10
2018-09-05T14:30:29.930Z,4.90
2018-09-05T14:35:34.742Z,4.23
2018-09-05T14:40:40.232Z,4.70
2018-09-05T14:45:44.478Z,3.53
2018-09-05T14:50:48.388Z,4.73
2018-09-05T14:55:51.443Z,4.80
2018-09-05T15:00:54.518Z,4.20
2018-09-05T15:05:57.630Z,5.00
2018-09-05T15:11:08.797Z,4.70
2018-09-05T15:16:15.115Z,4.47
2018-09-05T15:22:04.271Z,5.07
2018-09-05T15:27:08.691Z,4.73
2018-09-05T15:32:12.613Z,4.53
2018-09-05T15:37:16.423Z,5.23
2018-09-05T15:42:20.061Z,5.00
2018-09-05T15:47:23.099Z,5.00
2018-09-05T15:52:26.214Z,4.83
2018-09-05T15:57:29.342Z,4.73
2018-09-05T16:02:32.994Z,4.90
2018-09-05T16:07:36.565Z,5.27
2018-09-05T16:12:42.024Z,4.53
2018-09-05T16:17:46.692Z,4.90
2018-09-05T16:22:50.354Z,4.63
2018-09-05T16:27:53.431Z,4.10
2018-09-05T16:32:56.508Z,4.47
2018-09-05T16:37:59.732Z,4.30
2018-09-05T16:43:05.396Z,4.40
2018-09-05T16:48:12.451Z,4.50
2018-09-05T16:53:17.430Z,5.73
2018-09-05T16:58:20.828Z,5.17
2018-09-05T17:03:23.888Z,4.60
2018-09-05T17:08:27.754Z,4.70
2018-09-05T17:13:30.891Z,4.33
2018-09-05T17:18:33.978Z,4.20
2018-09-05T17:23:37.487Z,5.00
2018-09-05T17:28:42.939Z,4.17
2018-09-05T17:33:46.985Z,4.60
2018-09-05T17:38:50.134Z,4.57
2018-09-05T17:43:53.178Z,4.20
2018-09-05T17:48:56.238Z,4.37
2018-09-05T17:53:59.441Z,5.20
2018-09-05T17:59:02.644Z,5.17
2018-09-05T18:04:05.749Z,4.50
2018-09-05T18:09:09.902Z,4.40
2018-09-05T18:14:14.228Z,3.90
2018-09-05T18:19:18.461Z,4.40
2018-09-05T18:24:22.039Z,5.20
2018-09-05T18:29:25.390Z,4.53
2018-09-05T18:34:28.430Z,5.17
2018-09-05T18:39:31.732Z,4.87
2018-09-05T18:44:34.742Z,4.27
2018-09-05T18:49:37.760Z,4.40
2018-09-05T18:54:40.960Z,4.27
2018-09-05T18:59:45.878Z,4.57
2018-09-05T19:04:49.577Z,4.50
2018-09-05T19:09:53.075Z,4.50
2018-09-05T19:14:56.108Z,4.63
2018-09-05T19:19:59.134Z,4.43
2018-09-05T19:25:02.232Z,4.60
2018-09-05T19:30:05.615Z,4.10
2018-09-05T19:35:08.986Z,4.33
2018-09-05T19:40:13.047Z,5.17
2018-09-05T19:45:17.247Z,4.83
2018-09-05T19:50:20.915Z,5.10
2018-09-05T19:55:23.915Z,7.27
2018-09-05T20:00:28.373Z,5.43
2018-09-05T20:05:31.461Z,4.63
2018-09-05T20:10:34.877Z,4.93
2018-09-05T20:15:37.926Z,4.70
2018-09-05T20:20:41.058Z,4.80
2018-09-05T20:25:45.163Z,4.90
2018-09-05T20:30:48.566Z,5.00
2018-09-05T20:35:51.841Z,5.50
2018-09-05T20:40:54.942Z,5.47
2018-09-05T20:45:58.001Z,4.97
2018-09-05T20:51:01.030Z,5.27
2018-09-05T20:56:04.066Z,4.80
2018-09-05T21:01:07.539Z,5.20
2018-09-05T21:06:10.798Z,4.63
2018-09-05T21:11:15.703Z,5.40
2018-09-05T21:16:19.529Z,5.20
2018-09-05T21:21:23.666Z,5.70
2018-09-05T21:26:26.686Z,5.50
2018-09-05T21:31:29.703Z,5.50
2018-09-05T21:36:32.702Z,4.97
2018-09-05T21:41:35.754Z,5.03
2018-09-05T21:46:39.395Z,5.50
2018-09-05T21:51:44.035Z,5.60
2018-09-05T21:56:47.651Z,6.27
2018-09-05T22:01:51.048Z,5.13
2018-09-05T22:06:54.186Z,5.57
2018-09-05T22:11:57.189Z,5.40
2018-09-05T22:17:00.262Z,5.50
2018-09-05T22:22:03.289Z,6.40
2018-09-05T22:27:06.592Z,6.03
2018-09-05T22:32:10.024Z,5.40
2018-09-05T22:37:15.278Z,6.23
2018-09-05T22:42:18.651Z,5.70
2018-09-05T22:48:38.997Z,4.90
2018-09-05T22:54:10.376Z,5.63
2018-09-05T23:00:40.730Z,6.10
2018-09-05T23:08:57.240Z,5.47
2018-09-05T23:14:19.495Z,5.67
2018-09-05T23:19:45.954Z,5.63
2018-09-05T23:24:49.666Z,5.43
2018-09-05T23:29:53.014Z,5.20
2018-09-05T23:34:56.059Z,6.17
2018-09-05T23:39:59.087Z,5.47
2018-09-05T23:45:02.138Z,5.63
2018-09-05T23:50:05.737Z,6.03
2018-09-05T23:55:08.927Z,6.03
